Time;durP1;ratioP1;P1;durP2;ratioP2;P2;SDS_P1;SDS_P2;PMS_P1;PMS_P2;Temp;Humidity;BMP_temperature;BMP_pressure;BME280_temperature;BME280_humidity;BME280_pressure;Samples;Min_cycle;Max_cycle;Signal;HPM_P1;HPM_P2
2022/05/11 00:01:58;;;;;;;10.57;9.13;;;12.80;99.90;;;;;;5131092;27;20292;-62
2022/05/11 00:04:28;;;;;;;11.83;9.17;;;12.70;99.90;;;;;;5131175;27;20256;-62
2022/05/11 00:06:56;;;;;;;9.73;8.73;;;12.70;99.90;;;;;;5131397;27;20243;-63
2022/05/11 00:09:24;;;;;;;10.70;8.43;;;12.70;99.90;;;;;;5128916;27;20228;-63
2022/05/11 00:11:53;;;;;;;9.53;8.30;;;12.60;99.90;;;;;;5134571;27;20248;-62
2022/05/11 00:14:21;;;;;;;9.97;8.97;;;12.60;99.90;;;;;;5134837;27;20707;-62
2022/05/11 00:16:50;;;;;;;9.23;8.30;;;12.70;99.90;;;;;;5135085;27;20657;-63
2022/05/11 00:19:20;;;;;;;10.77;8.93;;;12.90;99.90;;;;;;5127434;27;20244;-62
2022/05/11 00:21:50;;;;;;;9.83;8.83;;;12.70;99.90;;;;;;5135030;27;20263;-62
2022/05/11 00:24:18;;;;;;;9.47;8.10;;;12.60;99.90;;;;;;5134550;27;20700;-63
2022/05/11 00:26:46;;;;;;;9.10;8.20;;;12.70;99.90;;;;;;5135130;27;20810;-62
2022/05/11 00:29:14;;;;;;;10.57;8.27;;;12.80;99.90;;;;;;5115241;27;20772;-63
2022/05/11 00:31:42;;;;;;;9.07;8.17;;;13.00;99.90;;;;;;5126376;27;20634;-62
2022/05/11 00:34:10;;;;;;;14.57;8.70;;;13.10;99.90;;;;;;5134734;27;20235;-62
2022/05/11 00:36:38;;;;;;;8.77;7.87;;;13.10;99.90;;;;;;5134990;27;20599;-63
2022/05/11 00:39:08;;;;;;;9.80;8.80;;;13.20;99.90;;;;;;5132965;27;20651;-63
2022/05/11 00:41:40;;;;;;;10.77;8.90;;;13.10;99.90;;;;;;5116217;27;20246;-63
2022/05/11 00:44:09;;;;;;;10.50;9.20;;;13.10;99.90;;;;;;5134631;27;20323;-63
2022/05/11 00:46:42;;;;;;;10.47;9.10;;;13.30;99.90;;;;;;5134679;27;20237;-62
2022/05/11 00:52:04;;;;;;;9.70;8.70;;;12.90;99.90;;;;;;5134148;27;20275;-63
2022/05/11 00:54:38;;;;;;;9.10;8.00;;;12.70;99.90;;;;;;5124431;27;20692;-62
2022/05/11 00:57:11;;;;;;;9.37;7.60;;;12.80;99.90;;;;;;5113963;28;20273;-62
2022/05/11 00:59:43;;;;;;;8.83;7.93;;;13.00;99.90;;;;;;5131350;27;20248;-62
2022/05/11 01:02:13;;;;;;;8.73;7.93;;;13.00;99.90;;;;;;5133825;27;20227;-62
2022/05/11 01:04:44;;;;;;;11.30;8.80;;;13.10;99.90;;;;;;5125894;27;20255;-62
2022/05/11 01:07:14;;;;;;;12.00;9.63;;;12.90;99.90;;;;;;5134246;27;20228;-62
2022/05/11 01:09:44;;;;;;;11.30;10.10;;;12.80;99.90;;;;;;5131260;27;20236;-62
2022/05/11 01:12:15;;;;;;;12.00;10.57;;;12.80;99.90;;;;;;5133877;27;20238;-62
2022/05/11 01:14:45;;;;;;;14.30;11.67;;;12.90;99.90;;;;;;5134179;27;20322;-62
2022/05/11 01:17:13;;;;;;;13.00;11.40;;;12.90;99.90;;;;;;5134113;27;20236;-62
2022/05/11 01:19:44;;;;;;;14.87;13.10;;;12.90;99.90;;;;;;5132630;27;20228;-62
2022/05/11 01:22:19;;;;;;;15.37;12.67;;;12.90;99.90;;;;;;5133516;27;20322;-62
2022/05/11 01:24:50;;;;;;;13.53;11.93;;;12.80;99.90;;;;;;5131096;27;20642;-62
2022/05/11 01:27:40;;;;;;;15.13;13.53;;;12.80;99.90;;;;;;5133823;27;20270;-62
2022/05/11 01:30:12;;;;;;;15.20;13.60;;;12.80;99.90;;;;;;5130613;27;20297;-63
2022/05/11 01:32:41;;;;;;;17.13;15.30;;;12.80;99.90;;;;;;5132654;27;20233;-62
2022/05/11 01:35:25;;;;;;;14.93;13.40;;;12.70;99.90;;;;;;5129088;27;20707;-63
2022/05/11 01:38:05;;;;;;;17.83;14.10;;;12.70;99.90;;;;;;5132139;27;20231;-63
2022/05/11 01:40:35;;;;;;;15.63;14.03;;;12.80;99.90;;;;;;5133014;27;20243;-63
2022/05/11 01:43:03;;;;;;;16.87;15.10;;;12.80;99.90;;;;;;5133264;27;20236;-63
2022/05/11 01:45:31;;;;;;;17.97;14.07;;;12.70;99.90;;;;;;5133961;27;20247;-62
2022/05/11 01:48:00;;;;;;;15.87;14.23;;;12.70;99.90;;;;;;5132243;27;20659;-62
2022/05/11 01:50:28;;;;;;;13.20;11.70;;;12.70;99.90;;;;;;5133655;27;20620;-62
2022/05/11 01:52:56;;;;;;;15.10;13.47;;;13.10;99.90;;;;;;5132721;27;20315;-62
2022/05/11 01:55:24;;;;;;;14.60;13.00;;;13.10;99.90;;;;;;5133369;27;20240;-62
2022/05/11 01:57:53;;;;;;;17.13;14.47;;;13.30;99.90;;;;;;5131956;27;20246;-63
2022/05/11 02:00:22;;;;;;;15.03;13.13;;;13.40;99.90;;;;;;5133168;27;20285;-63
2022/05/11 02:02:50;;;;;;;12.83;11.53;;;13.10;99.90;;;;;;5132836;27;20703;-62
2022/05/11 02:08:05;;;;;;;15.43;13.83;;;13.10;99.90;;;;;;5130898;27;20755;-64
2022/05/11 02:10:34;;;;;;;16.83;13.67;;;12.90;99.90;;;;;;5133004;27;20229;-62
2022/05/11 02:13:04;;;;;;;16.90;13.93;;;12.80;99.90;;;;;;5131125;27;20232;-64
2022/05/11 02:15:32;;;;;;;16.27;14.67;;;12.70;99.90;;;;;;5133287;27;20240;-62
2022/05/11 02:18:00;;;;;;;15.10;13.53;;;12.70;99.90;;;;;;5131747;27;20244;-63
2022/05/11 02:20:28;;;;;;;14.57;13.17;;;12.70;99.90;;;;;;5132907;27;20606;-62
2022/05/11 02:22:57;;;;;;;16.57;13.93;;;12.60;99.90;;;;;;5132337;27;20236;-63
2022/05/11 02:25:25;;;;;;;15.50;13.90;;;12.60;99.90;;;;;;5132991;27;20311;-62
2022/05/11 02:27:53;;;;;;;13.90;12.50;;;12.70;99.90;;;;;;5131385;27;20232;-63
2022/05/11 02:30:27;;;;;;;14.70;13.03;;;12.70;99.90;;;;;;5132331;27;20237;-62
2022/05/11 02:32:56;;;;;;;14.23;12.57;;;12.60;99.90;;;;;;5132292;27;20296;-62
2022/05/11 02:35:25;;;;;;;15.10;13.20;;;12.60;99.90;;;;;;5132632;27;20232;-62
2022/05/11 02:37:57;;;;;;;13.30;10.80;;;12.70;99.90;;;;;;5123380;27;20236;-62
2022/05/11 02:40:27;;;;;;;14.13;12.03;;;13.00;99.90;;;;;;5132553;27;20274;-62
2022/05/11 02:42:56;;;;;;;12.37;11.07;;;12.90;99.90;;;;;;5132395;27;20702;-62
2022/05/11 02:45:26;;;;;;;16.63;11.83;;;13.00;99.90;;;;;;5132055;27;20239;-62
2022/05/11 02:47:56;;;;;;;14.17;12.47;;;12.90;99.90;;;;;;5130920;27;20748;-62
2022/05/11 02:50:27;;;;;;;13.33;11.93;;;12.80;99.90;;;;;;5132224;27;20242;-62
2022/05/11 02:52:56;;;;;;;12.57;11.27;;;13.00;99.90;;;;;;5131459;27;20602;-62
2022/05/11 02:55:24;;;;;;;14.97;12.17;;;13.00;99.90;;;;;;5130999;27;20696;-62
2022/05/11 02:57:52;;;;;;;14.03;11.87;;;13.10;99.90;;;;;;5130327;27;20587;-62
2022/05/11 03:00:21;;;;;;;12.40;11.10;;;12.90;99.90;;;;;;5131935;27;20244;-62
2022/05/11 03:02:50;;;;;;;13.10;11.70;;;12.80;99.90;;;;;;5132076;27;20232;-63
2022/05/11 03:05:18;;;;;;;12.37;11.17;;;12.70;99.90;;;;;;5131689;27;20256;-63
2022/05/11 03:07:46;;;;;;;13.23;11.83;;;12.60;99.90;;;;;;5130235;27;20340;-62
2022/05/11 03:10:15;;;;;;;13.60;11.47;;;12.60;99.90;;;;;;5131814;27;20240;-63
2022/05/11 03:12:43;;;;;;;13.27;11.80;;;12.60;99.90;;;;;;5132047;27;20264;-62
2022/05/11 03:15:12;;;;;;;13.97;12.57;;;12.60;99.90;;;;;;5131309;27;20231;-62
2022/05/11 03:17:40;;;;;;;14.87;12.00;;;12.60;99.90;;;;;;5130486;27;20236;-63
2022/05/11 03:20:11;;;;;;;13.40;12.03;;;12.60;99.90;;;;;;5131087;27;20738;-62
2022/05/11 03:22:39;;;;;;;12.30;10.90;;;12.60;99.90;;;;;;5130647;27;20774;-62
2022/05/11 03:25:09;;;;;;;11.17;10.00;;;12.80;99.90;;;;;;5130396;27;20267;-63
2022/05/11 03:27:38;;;;;;;12.63;11.30;;;12.90;99.90;;;;;;5129125;27;20243;-63
2022/05/11 03:30:08;;;;;;;11.80;10.60;;;13.00;99.90;;;;;;5129063;27;20234;-62
2022/05/11 03:35:23;;;;;;;12.47;11.17;;;12.70;99.90;;;;;;5130679;27;20293;-63
2022/05/11 03:37:51;;;;;;;12.77;10.57;;;12.60;99.90;;;;;;5129156;27;20233;-64
2022/05/11 03:40:19;;;;;;;9.60;8.70;;;12.60;99.90;;;;;;5131126;27;20289;-62
2022/05/11 03:42:47;;;;;;;11.87;10.67;;;13.00;99.90;;;;;;5131659;27;20623;-63
2022/05/11 03:45:18;;;;;;;12.30;11.00;;;13.10;99.90;;;;;;5130070;27;20237;-63
2022/05/11 03:47:47;;;;;;;11.20;10.10;;;12.90;99.90;;;;;;5129932;27;20246;-62
2022/05/11 03:50:15;;;;;;;12.50;9.60;;;12.80;99.90;;;;;;5130930;27;20224;-63
2022/05/11 03:52:45;;;;;;;9.87;8.87;;;12.90;99.90;;;;;;5131513;28;20656;-62
2022/05/11 03:55:13;;;;;;;10.53;9.43;;;13.20;99.90;;;;;;5130471;27;20281;-63
2022/05/11 03:57:42;;;;;;;10.37;9.37;;;13.50;99.90;;;;;;5127852;27;20235;-62
2022/05/11 04:00:13;;;;;;;11.47;10.20;;;13.50;99.90;;;;;;5130933;27;20278;-62
2022/05/11 04:02:41;;;;;;;9.67;8.77;;;13.40;99.90;;;;;;5128567;27;20638;-62
2022/05/11 04:05:13;;;;;;;11.70;10.43;;;13.60;99.90;;;;;;5130102;27;20928;-64
2022/05/11 04:07:41;;;;;;;10.50;9.13;;;13.60;99.90;;;;;;5128902;27;20231;-63
2022/05/11 04:10:13;;;;;;;10.57;9.50;;;13.60;99.90;;;;;;5129588;27;20235;-62
2022/05/11 04:12:42;;;;;;;11.30;10.10;;;13.70;99.90;;;;;;5130745;27;20638;-63
2022/05/11 04:15:11;;;;;;;11.03;9.93;;;13.70;99.90;;;;;;5128438;27;20485;-62
2022/05/11 04:17:40;;;;;;;10.40;9.40;;;13.50;99.90;;;;;;5128987;27;20309;-63
2022/05/11 04:20:10;;;;;;;11.67;10.43;;;13.60;99.90;;;;;;5129197;27;20244;-62
2022/05/11 04:22:39;;;;;;;10.53;9.43;;;13.60;99.90;;;;;;5130964;27;20342;-62
2022/05/11 04:25:09;;;;;;;11.07;9.97;;;13.60;99.90;;;;;;5130122;27;20232;-64
2022/05/11 04:27:40;;;;;;;11.17;10.07;;;13.60;99.90;;;;;;5129502;27;20323;-63
2022/05/11 04:30:09;;;;;;;10.87;9.77;;;13.80;99.90;;;;;;5129604;27;20259;-62
2022/05/11 04:32:37;;;;;;;12.07;9.40;;;14.00;99.90;;;;;;5131035;28;20577;-63
2022/05/11 04:35:06;;;;;;;11.00;9.37;;;13.90;99.90;;;;;;5130217;27;20243;-62
2022/05/11 04:37:35;;;;;;;11.50;10.30;;;14.10;99.90;;;;;;5130067;27;20240;-64
2022/05/11 04:40:04;;;;;;;12.20;9.67;;;14.00;99.90;;;;;;5130872;27;20248;-62
2022/05/11 04:42:36;;;;;;;12.50;10.50;;;13.90;99.90;;;;;;5130883;28;20267;-62
2022/05/11 04:45:06;;;;;;;12.50;11.10;;;13.90;99.90;;;;;;5130952;27;20316;-63
2022/05/11 04:47:35;;;;;;;12.53;11.23;;;13.60;99.90;;;;;;5129566;28;20246;-65
2022/05/11 04:50:04;;;;;;;12.00;10.77;;;13.50;99.90;;;;;;5130409;27;20251;-63
2022/05/11 04:52:32;;;;;;;11.90;10.57;;;13.70;99.90;;;;;;5131115;27;20237;-62
2022/05/11 04:55:00;;;;;;;11.63;10.43;;;13.50;99.90;;;;;;5130792;27;20232;-62
2022/05/11 04:57:28;;;;;;;12.27;9.93;;;13.40;99.90;;;;;;5133573;27;20228;-63
2022/05/11 04:59:56;;;;;;;11.43;10.30;;;13.40;99.90;;;;;;5132969;27;20236;-62
2022/05/11 05:02:27;;;;;;;11.83;10.60;;;13.30;99.90;;;;;;5134571;27;20244;-62
2022/05/11 05:05:00;;;;;;;12.53;11.17;;;13.20;99.90;;;;;;5134009;27;20570;-62
2022/05/11 05:07:28;;;;;;;15.30;11.30;;;13.30;99.90;;;;;;5134081;27;20229;-63
2022/05/11 05:09:56;;;;;;;12.60;10.60;;;13.20;99.90;;;;;;5133446;27;20225;-62
2022/05/11 05:12:25;;;;;;;12.63;9.73;;;13.40;99.90;;;;;;5134103;27;20267;-62
2022/05/11 05:14:53;;;;;;;11.93;10.53;;;13.30;99.90;;;;;;5132654;27;20588;-62
2022/05/11 05:17:21;;;;;;;12.83;10.50;;;13.40;99.90;;;;;;5130246;27;20312;-62
2022/05/11 05:19:50;;;;;;;12.40;9.87;;;13.40;99.90;;;;;;5128017;27;20282;-62
2022/05/11 05:22:19;;;;;;;12.30;10.43;;;13.40;99.90;;;;;;5117952;27;20221;-62
2022/05/11 05:24:47;;;;;;;13.20;10.30;;;13.50;99.90;;;;;;5130496;27;20263;-62
2022/05/11 05:27:17;;;;;;;11.83;10.60;;;13.40;99.90;;;;;;5133684;27;20762;-62
2022/05/11 05:32:41;;;;;;;11.43;10.33;;;13.40;99.90;;;;;;5131750;27;20308;-62
2022/05/11 05:35:13;;;;;;;12.53;9.60;;;13.40;99.90;;;;;;5131179;27;20664;-63
2022/05/11 05:37:41;;;;;;;11.43;10.33;;;13.30;99.90;;;;;;5128514;27;20316;-63
2022/05/11 05:40:10;;;;;;;11.83;10.63;;;13.40;99.90;;;;;;5131123;27;20242;-62
2022/05/11 05:42:39;;;;;;;11.40;10.30;;;13.40;99.90;;;;;;5131525;27;20772;-62
2022/05/11 05:45:09;;;;;;;11.97;10.70;;;13.40;99.90;;;;;;5131795;27;20603;-63
2022/05/11 05:47:38;;;;;;;11.63;10.27;;;13.40;99.90;;;;;;5130837;27;20232;-64
2022/05/11 05:50:08;;;;;;;11.33;10.13;;;13.50;99.90;;;;;;5131830;27;20241;-63
2022/05/11 05:52:38;;;;;;;12.13;10.67;;;13.50;99.90;;;;;;5131676;27;20243;-62
2022/05/11 05:55:07;;;;;;;12.97;11.23;;;13.70;99.90;;;;;;5131628;27;20289;-63
2022/05/11 05:57:36;;;;;;;16.40;11.70;;;13.70;99.90;;;;;;5130225;27;20754;-63
2022/05/11 06:00:05;;;;;;;12.83;11.00;;;13.70;99.90;;;;;;5132042;27;20263;-62
2022/05/11 06:02:34;;;;;;;11.80;10.60;;;13.80;99.90;;;;;;5130776;27;20599;-62
2022/05/11 06:05:02;;;;;;;11.73;10.50;;;13.80;99.90;;;;;;5132009;27;20232;-62
2022/05/11 06:07:31;;;;;;;12.23;10.93;;;13.80;99.90;;;;;;5130438;27;20236;-64
2022/05/11 06:10:01;;;;;;;14.23;11.20;;;13.90;99.90;;;;;;5130141;27;20603;-62
2022/05/11 06:12:29;;;;;;;13.27;11.53;;;13.90;99.90;;;;;;5131546;27;20241;-63
2022/05/11 06:14:57;;;;;;;14.37;11.30;;;13.90;99.90;;;;;;5130365;27;20745;-62
2022/05/11 06:17:25;;;;;;;14.77;12.50;;;14.00;99.90;;;;;;5131529;27;20232;-62
2022/05/11 06:19:54;;;;;;;13.50;12.20;;;14.10;99.90;;;;;;5128789;27;20727;-63
2022/05/11 06:22:22;;;;;;;14.73;12.67;;;14.10;99.90;;;;;;5131705;27;20232;-63
2022/05/11 06:24:50;;;;;;;12.60;11.30;;;14.20;99.90;;;;;;5131164;27;20244;-62
2022/05/11 06:27:23;;;;;;;13.83;12.37;;;14.20;99.90;;;;;;5130586;27;20234;-63
2022/05/11 06:29:53;;;;;;;14.40;12.13;;;14.30;99.90;;;;;;5130437;27;20229;-62
2022/05/11 06:32:22;;;;;;;13.30;11.90;;;14.40;99.90;;;;;;5131241;27;20229;-63
2022/05/11 06:34:52;;;;;;;13.63;12.17;;;14.50;99.90;;;;;;5130558;27;20302;-63
2022/05/11 06:37:20;;;;;;;15.00;11.77;;;14.70;99.90;;;;;;5130560;27;20239;-63
2022/05/11 06:39:48;;;;;;;14.77;12.07;;;14.90;99.90;;;;;;5130430;27;20241;-63
2022/05/11 06:42:17;;;;;;;12.83;11.33;;;15.00;99.90;;;;;;5132254;27;20228;-63
2022/05/11 06:44:46;;;;;;;15.67;11.57;;;15.00;99.90;;;;;;5132734;27;20249;-63
2022/05/11 06:47:15;;;;;;;13.07;11.00;;;15.00;99.90;;;;;;5131941;27;20229;-64
2022/05/11 06:49:43;;;;;;;11.87;10.67;;;15.00;99.90;;;;;;5130988;27;20228;-64
2022/05/11 06:52:11;;;;;;;12.07;10.70;;;15.00;99.90;;;;;;5131774;27;20225;-63
2022/05/11 07:00:19;;;;;;;12.43;11.10;;;15.10;99.90;;;;;;5128355;27;20235;-63
2022/05/11 07:02:47;;;;;;;12.83;10.90;;;15.10;99.90;;;;;;5132302;27;20711;-63
2022/05/11 07:05:16;;;;;;;11.77;10.57;;;15.10;99.90;;;;;;5132117;27;20240;-63
2022/05/11 07:07:44;;;;;;;11.53;10.33;;;15.20;99.90;;;;;;5130192;27;20229;-64
2022/05/11 07:10:12;;;;;;;12.00;9.60;;;15.30;99.90;;;;;;5131554;27;20257;-63
2022/05/11 07:12:46;;;;;;;11.70;10.10;;;15.50;99.90;;;;;;5131972;27;20233;-63
2022/05/11 07:15:16;;;;;;;13.13;9.70;;;15.60;99.90;;;;;;5131943;27;20301;-63
2022/05/11 07:17:54;;;;;;;11.57;10.40;;;15.60;99.90;;;;;;5130511;27;20779;-63
2022/05/11 07:20:24;;;;;;;12.17;10.37;;;15.70;99.90;;;;;;5131422;27;20233;-64
2022/05/11 07:22:53;;;;;;;13.57;10.10;;;15.80;99.90;;;;;;5131957;27;20237;-63
2022/05/11 07:25:24;;;;;;;11.40;10.03;;;15.80;99.90;;;;;;5131603;27;20255;-63
2022/05/11 07:27:53;;;;;;;11.17;8.97;;;15.90;99.90;;;;;;5129995;27;20826;-64
2022/05/11 07:30:23;;;;;;;10.03;9.03;;;15.90;99.90;;;;;;5131549;27;20225;-63
2022/05/11 07:33:01;;;;;;;10.90;9.30;;;15.90;99.90;;;;;;5131887;27;20235;-63
2022/05/11 07:35:30;;;;;;;12.00;8.90;;;16.00;99.90;;;;;;5131552;27;20312;-63
2022/05/11 07:37:59;;;;;;;12.00;8.97;;;16.10;99.90;;;;;;5129950;27;20774;-63
2022/05/11 07:40:28;;;;;;;9.73;8.57;;;16.10;99.90;;;;;;5131227;27;20245;-63
2022/05/11 07:42:56;;;;;;;9.90;8.70;;;16.10;99.90;;;;;;5131578;27;20240;-63
2022/05/11 07:45:24;;;;;;;12.00;8.80;;;16.10;99.90;;;;;;5131348;27;20232;-63
2022/05/11 07:47:53;;;;;;;12.47;8.97;;;16.10;99.90;;;;;;5129761;27;20244;-63
2022/05/11 07:50:22;;;;;;;11.80;9.10;;;16.00;99.90;;;;;;5130998;27;20245;-63
2022/05/11 07:52:50;;;;;;;10.50;8.47;;;16.00;99.90;;;;;;5131457;27;20241;-63
2022/05/11 07:55:19;;;;;;;14.53;8.30;;;16.10;99.90;;;;;;5131467;27;20235;-63
2022/05/11 08:00:33;;;;;;;11.23;8.20;;;16.10;99.90;;;;;;5130187;27;20239;-63
2022/05/11 08:03:01;;;;;;;9.60;7.97;;;16.30;99.90;;;;;;5131980;27;20257;-63
2022/05/11 08:05:32;;;;;;;11.87;8.50;;;16.40;99.90;;;;;;5130397;27;20270;-63
2022/05/11 08:08:05;;;;;;;13.83;8.63;;;16.40;99.90;;;;;;5127736;27;20237;-63
2022/05/11 08:10:37;;;;;;;11.83;8.57;;;16.50;99.90;;;;;;5131413;27;20260;-63
2022/05/11 08:13:07;;;;;;;9.77;8.37;;;16.60;99.90;;;;;;5131240;28;20233;-64
2022/05/11 08:15:37;;;;;;;12.40;8.40;;;16.70;99.90;;;;;;5131548;27;20290;-64
2022/05/11 08:18:07;;;;;;;12.70;8.67;;;16.70;99.90;;;;;;5123849;27;20225;-64
2022/05/11 08:20:42;;;;;;;9.83;8.33;;;16.90;99.90;;;;;;5131255;28;20228;-64
2022/05/11 08:23:11;;;;;;;9.90;8.27;;;17.10;99.90;;;;;;5130743;28;20595;-63
2022/05/11 08:25:42;;;;;;;10.60;7.63;;;17.20;99.90;;;;;;5131033;28;20242;-64
2022/05/11 08:28:12;;;;;;;10.30;8.10;;;17.30;99.90;;;;;;5129291;27;20233;-63
2022/05/11 08:33:28;;;;;;;10.77;7.77;;;17.30;99.90;;;;;;5135090;27;20263;-64
2022/05/11 08:36:20;;;;;;;10.00;8.60;;;17.40;99.90;;;;;;5133848;27;20234;-64
2022/05/11 08:38:55;;;;;;;10.03;8.80;;;17.40;99.90;;;;;;5133189;27;20235;-64
2022/05/11 08:41:32;;;;;;;10.83;8.33;;;17.40;99.90;;;;;;5134498;27;20237;-64
2022/05/11 08:44:02;;;;;;;8.93;7.70;;;17.50;99.90;;;;;;5134904;27;20236;-63
2022/05/11 08:46:45;;;;;;;11.60;8.30;;;17.50;99.90;;;;;;5134789;27;20554;-64
2022/05/11 08:49:22;;;;;;;13.33;8.07;;;18.00;99.90;;;;;;5129187;27;20244;-63
2022/05/11 08:51:58;;;;;;;8.20;7.40;;;18.70;99.90;;;;;;5127255;27;20225;-64
2022/05/11 08:54:35;;;;;;;9.50;7.33;;;19.70;99.90;;;;;;5133765;27;20260;-64
2022/05/11 08:57:10;;;;;;;10.93;7.20;;;20.00;99.90;;;;;;5134197;27;20230;-64
2022/05/11 08:59:39;;;;;;;9.80;7.17;;;20.00;99.90;;;;;;5133196;27;20322;-64
2022/05/11 09:02:16;;;;;;;9.00;6.87;;;20.20;99.90;;;;;;5134194;27;20319;-64
2022/05/11 09:04:49;;;;;;;9.33;7.50;;;20.40;99.90;;;;;;5134993;27;20235;-63
2022/05/11 09:07:20;;;;;;;9.93;7.17;;;20.90;99.90;;;;;;5133915;27;20259;-64
2022/05/11 09:09:49;;;;;;;11.23;7.33;;;21.10;99.90;;;;;;5132765;27;20241;-64
2022/05/11 09:12:17;;;;;;;11.17;7.10;;;20.60;99.90;;;;;;5134180;27;20236;-63
2022/05/11 09:14:49;;;;;;;9.40;7.43;;;20.80;99.90;;;;;;5134495;27;20480;-63
2022/05/11 09:17:24;;;;;;;8.50;7.10;;;20.70;99.90;;;;;;5133601;27;20290;-65
2022/05/11 09:20:02;;;;;;;9.73;7.47;;;21.00;99.90;;;;;;5132621;27;20287;-64
2022/05/11 09:22:34;;;;;;;8.17;7.17;;;21.20;99.90;;;;;;5133959;27;20233;-63
2022/05/11 09:25:14;;;;;;;9.27;7.60;;;21.70;99.90;;;;;;5134284;27;20232;-63
2022/05/11 09:27:43;;;;;;;9.03;7.17;;;22.10;99.90;;;;;;5132633;27;20240;-63
2022/05/11 09:30:19;;;;;;;8.27;6.97;;;22.50;99.90;;;;;;5133697;27;20243;-63
2022/05/11 09:32:53;;;;;;;9.60;7.70;;;22.70;99.90;;;;;;5133355;27;20229;-63
2022/05/11 09:35:36;;;;;;;7.87;7.00;;;22.90;99.90;;;;;;5133783;27;20638;-64
2022/05/11 09:38:32;;;;;;;7.20;6.30;;;23.10;99.90;;;;;;5131698;27;20660;-64
2022/05/11 09:41:03;;;;;;;9.90;6.83;;;23.30;99.90;;;;;;5128067;27;20580;-63
2022/05/11 09:43:35;;;;;;;8.70;6.47;;;23.10;99.90;;;;;;5131759;27;20244;-63
2022/05/11 09:46:20;;;;;;;10.27;6.00;;;23.00;99.90;;;;;;5133595;27;20236;-63
2022/05/11 09:49:01;;;;;;;9.03;5.53;;;23.00;99.90;;;;;;5132039;27;20260;-63
2022/05/11 09:51:35;;;;;;;6.93;4.90;;;23.00;99.90;;;;;;5133519;27;20237;-63
2022/05/11 09:54:19;;;;;;;6.87;4.73;;;23.20;99.90;;;;;;5133819;27;20227;-65
2022/05/11 09:57:01;;;;;;;5.47;4.33;;;23.10;99.90;;;;;;5133359;27;20244;-64
2022/05/11 09:59:32;;;;;;;6.07;3.93;;;23.30;99.90;;;;;;5131494;27;20240;-64
2022/05/11 10:02:06;;;;;;;7.53;4.13;;;23.30;99.90;;;;;;5133292;27;20243;-63
2022/05/11 10:04:38;;;;;;;7.03;3.80;;;23.20;99.90;;;;;;5133458;27;20240;-64
2022/05/11 10:07:10;;;;;;;6.97;3.67;;;23.10;99.90;;;;;;5133177;27;20237;-63
2022/05/11 10:09:44;;;;;;;6.00;2.70;;;23.40;99.90;;;;;;5131758;27;20229;-63
2022/05/11 10:12:16;;;;;;;6.27;3.67;;;24.10;99.90;;;;;;5131584;27;20255;-63
2022/05/11 10:23:46;;;;;;;5.20;3.27;;;23.80;99.90;;;;;;5133094;27;20238;-64
2022/05/11 10:26:22;;;;;;;5.27;3.30;;;24.00;99.90;;;;;;5132798;27;20252;-65
2022/05/11 10:28:59;;;;;;;6.10;3.50;;;24.10;99.90;;;;;;5129540;27;20320;-65
2022/05/11 10:31:35;;;;;;;5.60;3.30;;;23.90;99.90;;;;;;5132230;27;20241;-64
2022/05/11 10:34:12;;;;;;;4.33;3.13;;;23.50;99.90;;;;;;5131368;27;20648;-64
2022/05/11 10:36:47;;;;;;;6.60;3.83;;;23.20;99.90;;;;;;5132610;27;20706;-66
2022/05/11 10:39:26;;;;;;;3.70;3.30;;;22.90;99.90;;;;;;5130033;27;20285;-65
2022/05/11 10:42:07;;;;;;;4.37;3.27;;;22.90;99.90;;;;;;5131548;27;20308;-65
2022/05/11 10:44:51;;;;;;;4.57;3.50;;;23.20;99.90;;;;;;5132088;27;20236;-64
2022/05/11 10:47:34;;;;;;;7.37;4.20;;;23.80;99.90;;;;;;5129317;27;20653;-64
2022/05/11 10:50:17;;;;;;;6.07;3.93;;;24.30;99.90;;;;;;5130943;27;20627;-65
2022/05/11 10:53:05;;;;;;;4.77;3.77;;;24.70;99.90;;;;;;5127730;27;20636;-64
2022/05/11 10:55:45;;;;;;;6.33;4.27;;;25.00;99.90;;;;;;5131363;27;20628;-64
2022/05/11 10:58:32;;;;;;;6.63;4.37;;;24.80;99.90;;;;;;5129340;27;20706;-64
2022/05/11 11:01:09;;;;;;;4.33;3.60;;;24.80;99.90;;;;;;5130356;27;20310;-64
2022/05/11 11:04:17;;;;;;;5.67;3.90;;;25.10;99.90;;;;;;5129592;27;20684;-64
2022/05/11 11:07:14;;;;;;;7.63;4.37;;;24.80;99.90;;;;;;5109114;27;20241;-64
2022/05/11 11:10:00;;;;;;;9.27;5.00;;;24.60;99.90;;;;;;5109918;27;20254;-64
2022/05/11 11:12:48;;;;;;;5.07;4.57;;;24.30;99.90;;;;;;5111564;27;20244;-64
2022/05/11 11:15:21;;;;;;;6.33;4.97;;;24.40;99.90;;;;;;5111277;28;20238;-64
2022/05/11 11:17:51;;;;;;;7.80;4.70;;;24.50;99.90;;;;;;5110348;27;20599;-64
2022/05/11 11:20:22;;;;;;;5.63;4.03;;;24.30;99.90;;;;;;5108149;27;20230;-64
2022/05/11 11:23:11;;;;;;;5.67;4.27;;;24.10;99.90;;;;;;5111540;28;20269;-64
2022/05/11 11:25:51;;;;;;;6.50;4.33;;;24.10;99.90;;;;;;5111185;27;20239;-64
2022/05/11 11:28:20;;;;;;;7.23;4.63;;;24.20;99.90;;;;;;5114762;27;20234;-64
2022/05/11 11:31:20;;;;;;;6.17;4.40;;;24.20;99.90;;;;;;5131705;27;20229;-64
2022/05/11 11:34:18;;;;;;;5.53;3.87;;;24.40;99.90;;;;;;5131639;27;20233;-65
2022/05/11 11:36:46;;;;;;;5.87;3.80;;;25.20;99.90;;;;;;5130534;27;20328;-64
2022/05/11 11:39:55;;;;;;;6.57;4.17;;;25.60;99.90;;;;;;5129734;27;20231;-64
2022/05/11 11:42:38;;;;;;;5.07;3.37;;;25.30;99.90;;;;;;5124787;27;20599;-64
2022/05/11 11:45:08;;;;;;;6.60;3.40;;;25.00;99.90;;;;;;5131922;27;20581;-64
2022/05/11 11:47:42;;;;;;;5.20;3.27;;;24.80;99.90;;;;;;5130807;27;20700;-65
2022/05/11 11:50:29;;;;;;;6.93;4.40;;;24.50;99.90;;;;;;5127089;27;20571;-64
2022/05/11 11:53:09;;;;;;;6.77;4.20;;;24.60;99.90;;;;;;5130601;27;20241;-64
2022/05/11 11:55:40;;;;;;;5.67;3.87;;;24.30;99.90;;;;;;5131729;27;20242;-64
2022/05/11 11:58:21;;;;;;;5.57;3.73;;;23.90;99.90;;;;;;5130091;27;20333;-64
2022/05/11 12:01:01;;;;;;;3.97;3.63;;;24.10;99.90;;;;;;5123778;27;20272;-64
2022/05/11 12:03:33;;;;;;;4.90;3.80;;;24.30;99.90;;;;;;5131401;27;20744;-64
2022/05/11 12:17:30;;;;;;;5.10;3.43;;;23.70;99.90;;;;;;5134826;27;20225;-67
2022/05/11 12:20:04;;;;;;;6.80;3.40;;;23.50;99.90;;;;;;5133730;27;20713;-65
2022/05/11 12:22:39;;;;;;;7.63;3.63;;;23.50;99.90;;;;;;5134593;27;20243;-65
2022/05/11 12:25:20;;;;;;;5.37;3.20;;;23.40;99.90;;;;;;5135519;27;20240;-66
2022/05/11 12:27:50;;;;;;;4.83;3.27;;;23.30;99.90;;;;;;5133758;27;20249;-65
2022/05/11 12:30:23;;;;;;;4.67;3.20;;;23.30;99.90;;;;;;5131379;27;20720;-66
2022/05/11 12:32:54;;;;;;;7.47;3.57;;;23.10;99.90;;;;;;5135280;27;20242;-66
2022/05/11 12:35:27;;;;;;;6.23;2.97;;;23.10;99.90;;;;;;5134640;27;20596;-65
2022/05/11 12:37:58;;;;;;;4.90;3.27;;;23.30;99.90;;;;;;5133853;27;20251;-65
2022/05/11 12:40:27;;;;;;;7.57;3.43;;;23.50;99.90;;;;;;5134330;27;20255;-65
2022/05/11 12:42:58;;;;;;;6.70;3.20;;;23.70;99.90;;;;;;5134187;27;20652;-65
2022/05/11 12:45:35;;;;;;;7.20;3.50;;;23.70;99.90;;;;;;5134168;27;20619;-64
2022/05/11 12:48:04;;;;;;;5.63;2.90;;;23.50;99.90;;;;;;5133462;27;20724;-64
2022/05/11 12:50:38;;;;;;;6.57;2.90;;;23.30;99.90;;;;;;5134339;27;20317;-64
2022/05/11 12:53:23;;;;;;;6.30;2.80;;;23.20;99.90;;;;;;5135069;27;20268;-64
2022/05/11 12:55:54;;;;;;;6.40;2.40;;;23.00;99.90;;;;;;5133774;27;20237;-63
2022/05/11 12:58:29;;;;;;;6.43;2.80;;;23.30;99.90;;;;;;5114815;27;20229;-64
2022/05/11 13:00:59;;;;;;;4.83;3.03;;;23.40;99.90;;;;;;5134084;27;20234;-63
2022/05/11 13:03:33;;;;;;;7.73;2.60;;;23.40;99.90;;;;;;5133711;27;20236;-64
2022/05/11 13:06:05;;;;;;;6.03;2.27;;;23.50;99.90;;;;;;5114184;28;20709;-63
2022/05/11 13:08:38;;;;;;;6.07;2.60;;;23.80;99.90;;;;;;5130336;27;20721;-63
2022/05/11 13:11:15;;;;;;;7.30;2.13;;;23.80;99.90;;;;;;5133993;27;20715;-64
2022/05/11 13:13:46;;;;;;;6.30;2.53;;;23.70;99.90;;;;;;5120867;27;20312;-64
2022/05/11 13:16:18;;;;;;;6.47;2.40;;;23.60;99.90;;;;;;5134135;27;20627;-64
2022/05/11 13:18:47;;;;;;;5.87;2.40;;;23.40;99.90;;;;;;5132652;27;20235;-64
2022/05/11 13:21:25;;;;;;;4.77;2.70;;;23.40;99.90;;;;;;5133775;27;20600;-65
2022/05/11 13:23:53;;;;;;;102.43;6.63;;;23.40;99.90;;;;;;5134328;27;20237;-66
2022/05/11 13:26:35;;;;;;;58.93;5.43;;;23.30;99.90;;;;;;5134277;27;20727;-65
2022/05/11 13:29:20;;;;;;;57.60;5.43;;;23.10;99.90;;;;;;5127471;27;20237;-65
2022/05/11 13:32:03;;;;;;;27.60;3.50;;;23.10;99.90;;;;;;5133523;27;20229;-66
2022/05/11 13:34:34;;;;;;;308.90;15.07;;;22.80;99.90;;;;;;5133329;27;20835;-65
2022/05/11 13:37:03;;;;;;;66.27;6.37;;;22.80;99.90;;;;;;5132046;27;20232;-64
2022/05/11 13:39:35;;;;;;;9.47;2.10;;;22.90;99.90;;;;;;5131980;27;20240;-64
2022/05/11 13:42:14;;;;;;;11.03;2.20;;;23.00;99.90;;;;;;5133885;27;20620;-63
2022/05/11 13:44:52;;;;;;;8.60;2.13;;;23.00;99.90;;;;;;5117816;27;20286;-63